createdAt,value
2018-12-02T00:01:49.149Z,99903.35
2018-12-02T00:03:58.107Z,99904.66
2018-12-02T00:06:07.160Z,99895.82
2018-12-02T00:08:16.025Z,99894.35
2018-12-02T00:10:25.661Z,99888.53
2018-12-02T00:12:33.596Z,99885.91
2018-12-02T00:14:41.727Z,99886.27
2018-12-02T00:16:49.732Z,99881.02
2018-12-02T00:18:57.859Z,99872.70
2018-12-02T00:21:05.798Z,99872.17
2018-12-02T00:23:13.758Z,99870.02
2018-12-02T00:29:37.738Z,99862.20
2018-12-02T00:31:46.876Z,99862.67
2018-12-02T00:33:54.844Z,99855.30
2018-12-02T00:36:02.839Z,99851.03
2018-12-02T00:38:09.564Z,99846.31
2018-12-02T00:40:21.512Z,99842.38
2018-12-02T00:42:29.493Z,99837.13
2018-12-02T00:44:38.834Z,99828.81
2018-12-02T00:46:46.908Z,99827.44
2018-12-02T00:48:54.854Z,99822.58
2018-12-02T00:51:02.815Z,99819.41
2018-12-02T00:53:11.852Z,99808.86
2018-12-02T00:55:30.094Z,99810.49
2018-12-02T00:57:38.067Z,99808.63
2018-12-02T00:59:46.326Z,99798.07
2018-12-02T01:01:54.444Z,99798.40
2018-12-02T01:04:02.537Z,99793.05
2018-12-02T01:06:10.491Z,99789.84
2018-12-02T01:08:18.497Z,99784.50
2018-12-02T01:10:27.508Z,99783.19
2018-12-02T01:12:35.450Z,99788.37
2018-12-02T01:14:45.252Z,99787.05
2018-12-02T01:16:53.225Z,99786.89
2018-12-02T01:19:02.221Z,99783.34
2018-12-02T01:21:10.872Z,99774.03
2018-12-02T01:23:19.724Z,99776.09
2018-12-02T01:25:27.836Z,99772.55
2018-12-02T01:27:36.279Z,99772.03
2018-12-02T01:29:48.155Z,99770.16
2018-12-02T01:31:56.348Z,99772.31
2018-12-02T01:34:04.543Z,99770.94
2018-12-02T01:36:12.521Z,99765.63
2018-12-02T01:38:21.046Z,99765.06
2018-12-02T01:40:28.988Z,99761.12
2018-12-02T01:42:36.926Z,99753.22
2018-12-02T01:44:45.467Z,99763.64
2018-12-02T01:46:55.467Z,99759.32
2018-12-02T01:49:03.407Z,99751.45
2018-12-02T01:51:13.348Z,99746.66
2018-12-02T01:53:21.600Z,99754.36
2018-12-02T01:55:29.563Z,99744.26
2018-12-02T01:57:38.644Z,99743.34
2018-12-02T01:59:48.201Z,99741.11
2018-12-02T02:01:56.206Z,99743.16
2018-12-02T02:04:04.286Z,99737.00
2018-12-02T02:06:13.101Z,99738.77
2018-12-02T02:08:21.908Z,99737.06
2018-12-02T02:10:32.720Z,99728.84
2018-12-02T02:12:40.626Z,99730.50
2018-12-02T02:14:48.562Z,99726.21
2018-12-02T02:16:56.606Z,99717.88
2018-12-02T02:19:04.568Z,99709.16
2018-12-02T02:21:12.557Z,99709.16
2018-12-02T02:23:20.745Z,99712.70
2018-12-02T02:25:28.729Z,99705.97
2018-12-02T02:27:36.763Z,99690.33
2018-12-02T02:29:45.412Z,99690.33
2018-12-02T02:31:53.516Z,99693.31
2018-12-02T02:34:01.567Z,99688.06
2018-12-02T02:36:09.666Z,99681.97
2018-12-02T02:38:17.611Z,99673.17
2018-12-02T02:40:30.672Z,99668.84
2018-12-02T02:42:38.731Z,99666.72
2018-12-02T02:44:46.674Z,99664.09
2018-12-02T02:46:54.918Z,99658.84
2018-12-02T02:49:02.990Z,99652.28
2018-12-02T02:51:11.282Z,99651.79
2018-12-02T02:53:19.299Z,99644.31
2018-12-02T02:55:27.293Z,99641.61
2018-12-02T02:57:35.192Z,99643.21
2018-12-02T02:59:43.195Z,99640.97
2018-12-02T03:01:51.315Z,99640.44
2018-12-02T03:03:59.482Z,99642.99
2018-12-02T03:06:08.265Z,99634.27
2018-12-02T03:08:16.592Z,99633.70
2018-12-02T03:10:24.514Z,99629.77
2018-12-02T03:12:32.441Z,99625.30
2018-12-02T03:14:41.215Z,99617.70
2018-12-02T03:16:49.211Z,99610.68
2018-12-02T03:18:57.155Z,99618.41
2018-12-02T03:21:05.313Z,99607.80
2018-12-02T03:23:13.234Z,99608.58
2018-12-02T03:25:22.706Z,99604.95
2018-12-02T03:27:30.625Z,99596.62
2018-12-02T03:29:38.572Z,99594.73
2018-12-02T03:31:46.530Z,99587.32
2018-12-02T03:33:54.594Z,99584.16
2018-12-02T03:36:02.571Z,99574.51
2018-12-02T03:38:10.734Z,99579.65
2018-12-02T03:40:25.889Z,99575.25
2018-12-02T03:42:34.541Z,99574.71
2018-12-02T03:44:42.483Z,99570.31
2018-12-02T03:46:50.481Z,99570.23
2018-12-02T03:48:58.549Z,99572.75
2018-12-02T03:51:06.919Z,99561.41
2018-12-02T03:53:14.860Z,99565.65
2018-12-02T03:55:22.826Z,99567.42
2018-12-02T03:57:30.781Z,99558.16
2018-12-02T03:59:38.716Z,99558.55
2018-12-02T04:01:46.872Z,99559.86
2018-12-02T04:03:54.855Z,99550.67
2018-12-02T04:06:04.823Z,99547.55
2018-12-02T04:08:12.805Z,99543.61
2018-12-02T04:10:21.519Z,99548.39
2018-12-02T04:12:29.419Z,99541.83
2018-12-02T04:14:37.364Z,99547.55
2018-12-02T04:16:45.548Z,99533.11
2018-12-02T04:18:54.421Z,99529.66
2018-12-02T04:21:02.375Z,99531.44
2018-12-02T04:23:10.308Z,99532.83
2018-12-02T04:25:27.957Z,99533.30
2018-12-02T04:27:35.956Z,99532.91
2018-12-02T04:29:43.908Z,99541.36
2018-12-02T04:31:51.883Z,99546.22
2018-12-02T04:33:59.794Z,99546.30
2018-12-02T04:36:07.793Z,99550.77
2018-12-02T04:38:15.774Z,99544.32
2018-12-02T04:40:23.701Z,99553.30
2018-12-02T04:42:31.619Z,99550.16
2018-12-02T04:44:37.489Z,99546.48
2018-12-02T04:46:45.670Z,99546.64
2018-12-02T04:48:53.683Z,99547.09
2018-12-02T04:51:01.615Z,99544.58
2018-12-02T04:53:09.658Z,99546.51
2018-12-02T04:55:17.624Z,99540.67
2018-12-02T04:57:25.566Z,99539.92
2018-12-02T04:59:33.602Z,99537.17
2018-12-02T05:01:41.573Z,99532.95
2018-12-02T05:03:49.588Z,99526.51
2018-12-02T05:05:57.730Z,99520.95
2018-12-02T05:08:05.683Z,99518.78
2018-12-02T05:10:21.443Z,99516.62
2018-12-02T05:12:29.329Z,99504.23
2018-12-02T05:14:37.366Z,99506.18
2018-12-02T05:16:45.646Z,99501.47
2018-12-02T05:18:53.709Z,99496.33
2018-12-02T05:21:01.652Z,99502.96
2018-12-02T05:23:09.741Z,99498.56
2018-12-02T05:25:18.813Z,99489.39
2018-12-02T05:27:27.269Z,99486.77
2018-12-02T05:29:35.145Z,99488.61
2018-12-02T05:31:43.389Z,99487.30
2018-12-02T05:33:51.320Z,99480.39
2018-12-02T05:35:59.270Z,99479.30
2018-12-02T05:38:07.623Z,99468.53
2018-12-02T05:40:22.225Z,99472.08
2018-12-02T05:42:33.680Z,99472.46
2018-12-02T05:44:42.258Z,99469.98
2018-12-02T05:46:51.203Z,99457.52
2018-12-02T05:48:59.111Z,99458.55
2018-12-02T05:51:07.289Z,99463.41
2018-12-02T05:53:15.255Z,99456.64
2018-12-02T05:55:37.214Z,99462.88
2018-12-02T05:57:45.899Z,99459.02
2018-12-02T05:59:53.817Z,99456.97
2018-12-02T06:02:01.758Z,99451.80
2018-12-02T06:04:09.787Z,99453.11
2018-12-02T06:06:17.778Z,99444.01
2018-12-02T06:08:25.775Z,99439.23
2018-12-02T06:10:33.790Z,99436.71
2018-12-02T06:12:41.797Z,99429.31
2018-12-02T06:14:49.878Z,99426.61
2018-12-02T06:16:57.842Z,99414.81
2018-12-02T06:19:06.052Z,99412.09
2018-12-02T06:21:14.129Z,99414.17
2018-12-02T06:23:22.144Z,99414.92
2018-12-02T06:25:30.134Z,99409.99
2018-12-02T06:27:38.435Z,99411.12
2018-12-02T06:29:46.439Z,99400.95
2018-12-02T06:31:54.590Z,99413.02
2018-12-02T06:34:02.519Z,99407.63
2018-12-02T06:36:10.547Z,99404.44
2018-12-02T06:38:18.500Z,99396.03
2018-12-02T06:40:30.477Z,99403.36
2018-12-02T06:42:39.564Z,99401.13
2018-12-02T06:44:44.804Z,99405.87
2018-12-02T06:46:52.733Z,99410.20
2018-12-02T06:49:00.796Z,99412.82
2018-12-02T06:51:11.165Z,99405.80
2018-12-02T06:53:19.257Z,99405.34
2018-12-02T06:56:02.865Z,99414.52
2018-12-02T06:58:40.319Z,99413.98
2018-12-02T07:01:49.451Z,99413.98
2018-12-02T07:04:22.122Z,99405.73
2018-12-02T07:06:30.116Z,99407.97
2018-12-02T07:08:38.122Z,99415.91
2018-12-02T07:10:46.109Z,99409.00
2018-12-02T07:12:54.085Z,99402.05
2018-12-02T07:15:02.092Z,99405.14
2018-12-02T07:17:10.195Z,99403.83
2018-12-02T07:19:36.949Z,99402.05
2018-12-02T07:21:49.576Z,99402.91
2018-12-02T07:23:58.566Z,99395.78
2018-12-02T07:26:09.077Z,99405.73
2018-12-02T07:28:17.062Z,99399.91
2018-12-02T07:30:25.181Z,99400.69
2018-12-02T07:32:34.073Z,99394.98
2018-12-02T07:34:55.096Z,99394.52
2018-12-02T07:37:19.301Z,99385.27
2018-12-02T07:40:35.798Z,99386.58
2018-12-02T07:42:43.772Z,99381.33
2018-12-02T07:44:48.724Z,99380.94
2018-12-02T07:46:56.727Z,99378.78
2018-12-02T07:49:04.690Z,99383.10
2018-12-02T07:51:12.774Z,99376.90
2018-12-02T07:53:20.681Z,99370.27
2018-12-02T07:55:28.697Z,99368.87
2018-12-02T07:57:36.677Z,99373.47
2018-12-02T07:59:44.625Z,99378.56
2018-12-02T08:01:52.582Z,99380.15
2018-12-02T08:04:00.686Z,99374.83
2018-12-02T08:06:09.442Z,99371.28
2018-12-02T08:08:17.476Z,99368.00
2018-12-02T08:10:29.703Z,99369.16
2018-12-02T08:12:37.758Z,99370.39
2018-12-02T08:14:46.240Z,99363.37
2018-12-02T08:16:54.177Z,99367.61
2018-12-02T08:19:02.263Z,99369.66
2018-12-02T08:21:10.247Z,99368.73
2018-12-02T08:23:18.238Z,99365.91
2018-12-02T08:25:26.389Z,99363.22
2018-12-02T08:27:34.611Z,99361.52
2018-12-02T08:29:42.610Z,99364.72
2018-12-02T08:31:50.602Z,99356.73
2018-12-02T08:33:58.597Z,99354.88
2018-12-02T08:36:06.592Z,99357.50
2018-12-02T08:38:15.054Z,99364.83
2018-12-02T08:40:23.157Z,99352.64
2018-12-02T08:42:31.306Z,99350.86
2018-12-02T08:44:39.336Z,99353.87
2018-12-02T08:46:48.113Z,99354.33
2018-12-02T08:48:56.222Z,99360.32
2018-12-02T08:51:04.237Z,99356.38
2018-12-02T08:53:14.060Z,99348.52
2018-12-02T08:55:22.753Z,99350.28
2018-12-02T08:57:30.711Z,99331.92
2018-12-02T08:59:38.846Z,99346.35
2018-12-02T09:01:46.895Z,99343.10
2018-12-02T09:03:55.036Z,99344.77
2018-12-02T09:06:03.129Z,99341.52
2018-12-02T09:08:12.343Z,99326.61
2018-12-02T09:10:24.957Z,99341.41
2018-12-02T09:12:33.016Z,99334.84
2018-12-02T09:14:41.227Z,99324.84
2018-12-02T09:16:49.309Z,99328.78
2018-12-02T09:18:58.255Z,99331.86
2018-12-02T09:21:06.522Z,99317.43
2018-12-02T09:23:14.940Z,99320.79
2018-12-02T09:25:22.975Z,99314.61
2018-12-02T09:27:31.998Z,99315.76
2018-12-02T09:29:40.024Z,99312.09
2018-12-02T09:31:48.127Z,99315.48
2018-12-02T09:33:56.241Z,99316.22
2018-12-02T09:36:04.211Z,99314.36
2018-12-02T09:38:12.255Z,99307.52
2018-12-02T09:40:20.538Z,99313.41
2018-12-02T09:42:28.584Z,99315.02
2018-12-02T09:44:36.616Z,99328.42
2018-12-02T09:46:44.617Z,99327.95
2018-12-02T09:48:51.691Z,99336.30
2018-12-02T09:50:59.672Z,99350.27
2018-12-02T09:53:09.057Z,99353.02
2018-12-02T09:55:31.627Z,99355.80
2018-12-02T09:57:39.822Z,99352.91
2018-12-02T09:59:47.843Z,99354.38
2018-12-02T10:01:56.286Z,99356.27
2018-12-02T10:04:04.291Z,99361.69
2018-12-02T10:06:12.358Z,99358.33
2018-12-02T10:08:20.865Z,99351.84
2018-12-02T10:10:29.231Z,99356.17
2018-12-02T10:12:37.570Z,99372.27
2018-12-02T10:14:46.853Z,99359.64
2018-12-02T10:16:55.071Z,99360.95
2018-12-02T10:19:03.155Z,99366.67
2018-12-02T10:21:11.421Z,99360.95
2018-12-02T10:23:19.447Z,99362.27
2018-12-02T10:25:27.686Z,99364.89
2018-12-02T10:27:35.720Z,99357.48
2018-12-02T10:29:43.759Z,99365.81
2018-12-02T10:31:51.864Z,99360.95
2018-12-02T10:33:59.936Z,99361.22
2018-12-02T10:36:08.281Z,99364.50
2018-12-02T10:38:16.286Z,99362.09
2018-12-02T10:40:28.575Z,99362.67
2018-12-02T10:42:37.443Z,99350.58
2018-12-02T10:44:45.475Z,99353.77
2018-12-02T10:46:53.653Z,99348.23
2018-12-02T10:48:58.604Z,99343.63
2018-12-02T10:51:06.922Z,99337.36
2018-12-02T10:53:24.781Z,99338.09
2018-12-02T10:56:04.050Z,99336.61
2018-12-02T10:58:28.741Z,99326.02
2018-12-02T11:00:53.997Z,99334.17
2018-12-02T11:03:02.103Z,99327.52
2018-12-02T11:05:10.599Z,99334.73
2018-12-02T11:07:19.121Z,99334.36
2018-12-02T11:09:27.285Z,99330.98
2018-12-02T11:11:35.341Z,99345.91
2018-12-02T11:13:43.321Z,99342.90
2018-12-02T11:15:51.400Z,99348.33
2018-12-02T11:17:59.725Z,99331.80
2018-12-02T11:20:10.358Z,99331.13
2018-12-02T11:22:18.510Z,99322.60
2018-12-02T11:24:26.938Z,99317.55
2018-12-02T11:26:34.982Z,99320.81
2018-12-02T11:28:43.981Z,99334.13
2018-12-02T11:30:52.224Z,99334.42
2018-12-02T11:33:00.386Z,99320.22
2018-12-02T11:35:10.739Z,99322.38
2018-12-02T11:37:18.767Z,99321.15
2018-12-02T11:39:26.867Z,99323.39
2018-12-02T11:41:35.430Z,99325.63
2018-12-02T11:43:43.625Z,99315.19
2018-12-02T11:45:51.709Z,99319.20
2018-12-02T11:47:59.762Z,99317.47
2018-12-02T11:50:05.374Z,99319.82
2018-12-02T11:52:13.417Z,99305.05
2018-12-02T11:54:21.579Z,99307.37
2018-12-02T11:56:29.697Z,99312.23
2018-12-02T11:58:38.854Z,99304.02
2018-12-02T12:00:47.092Z,99313.61
2018-12-02T12:02:55.927Z,99313.02
2018-12-02T12:05:04.053Z,99329.66
2018-12-02T12:07:17.755Z,99320.82
2018-12-02T12:09:28.677Z,99321.30
2018-12-02T12:11:39.432Z,99318.28
2018-12-02T12:13:50.364Z,99317.56
2018-12-02T12:16:01.988Z,99311.45
2018-12-02T12:18:11.482Z,99313.48
2018-12-02T12:20:27.432Z,99315.77
2018-12-02T12:22:35.522Z,99311.83
2018-12-02T12:24:44.589Z,99314.24
2018-12-02T12:26:55.695Z,99309.83
2018-12-02T12:29:04.039Z,99309.83
2018-12-02T12:31:12.280Z,99303.62
2018-12-02T12:33:20.894Z,99300.61
2018-12-02T12:35:29.280Z,99311.52
2018-12-02T12:37:38.490Z,99300.98
2018-12-02T12:39:47.354Z,99301.70
2018-12-02T12:41:55.369Z,99297.76
2018-12-02T12:44:03.605Z,99310.36
2018-12-02T12:46:11.723Z,99307.16
2018-12-02T12:48:19.808Z,99310.14
2018-12-02T12:50:25.916Z,99314.75
2018-12-02T12:52:33.961Z,99316.78
2018-12-02T12:54:41.972Z,99307.48
2018-12-02T12:56:50.046Z,99309.64
2018-12-02T12:59:00.850Z,99316.47
2018-12-02T13:01:09.222Z,99316.00
2018-12-02T13:03:17.583Z,99318.16
2018-12-02T13:05:27.665Z,99323.52
2018-12-02T13:07:36.124Z,99319.70
2018-12-02T13:09:44.195Z,99324.97
2018-12-02T13:11:52.271Z,99335.97
2018-12-02T13:14:00.227Z,99327.22
2018-12-02T13:16:08.737Z,99333.05
2018-12-02T13:18:16.847Z,99331.48
2018-12-02T13:20:25.403Z,99329.80
2018-12-02T13:22:33.493Z,99332.52
2018-12-02T13:24:41.573Z,99335.62
2018-12-02T13:26:49.989Z,99337.16
2018-12-02T13:28:58.981Z,99347.69
2018-12-02T13:31:07.303Z,99345.42
2018-12-02T13:33:15.386Z,99345.42
2018-12-02T13:35:23.515Z,99346.75
2018-12-02T13:37:31.683Z,99348.53
2018-12-02T13:39:39.786Z,99362.91
2018-12-02T13:41:47.776Z,99364.23
2018-12-02T13:43:56.481Z,99357.27
2018-12-02T13:46:04.506Z,99359.53
2018-12-02T13:48:12.645Z,99355.67
2018-12-02T13:50:21.738Z,99357.93
2018-12-02T13:52:26.736Z,99362.00
2018-12-02T13:54:38.495Z,99354.10
2018-12-02T13:56:47.479Z,99359.63
2018-12-02T13:58:55.626Z,99365.73
2018-12-02T14:01:03.696Z,99370.91
2018-12-02T14:03:13.484Z,99373.54
2018-12-02T14:05:21.900Z,99364.80
2018-12-02T14:07:29.885Z,99368.74
2018-12-02T14:09:37.923Z,99370.44
2018-12-02T14:11:46.067Z,99379.18
2018-12-02T14:13:54.502Z,99376.55
2018-12-02T14:16:30.910Z,99385.01
2018-12-02T14:18:44.100Z,99386.23
2018-12-02T14:20:52.833Z,99384.91
2018-12-02T14:23:00.820Z,99390.18
2018-12-02T14:25:15.647Z,99395.53
2018-12-02T14:27:23.707Z,99400.33
2018-12-02T14:29:50.244Z,99398.55
2018-12-02T14:32:04.131Z,99398.45
2018-12-02T14:34:12.110Z,99397.14
2018-12-02T14:36:26.341Z,99404.57
2018-12-02T14:38:30.628Z,99394.04
2018-12-02T14:40:39.047Z,99404.91
2018-12-02T14:42:48.035Z,99397.39
2018-12-02T14:44:56.042Z,99392.03
2018-12-02T14:47:04.002Z,99396.37
2018-12-02T14:49:12.059Z,99397.21
2018-12-02T14:51:20.142Z,99409.06
2018-12-02T14:53:30.112Z,99402.48
2018-12-02T14:55:38.602Z,99405.58
2018-12-02T14:57:48.086Z,99403.30
2018-12-02T14:59:56.114Z,99407.24
2018-12-02T15:02:04.249Z,99406.30
2018-12-02T15:04:12.329Z,99399.72
2018-12-02T15:06:20.405Z,99403.20
2018-12-02T15:08:29.463Z,99406.30
2018-12-02T15:10:38.376Z,99396.63
2018-12-02T15:12:49.536Z,99403.58
2018-12-02T15:14:57.723Z,99399.63
2018-12-02T15:17:05.704Z,99408.84
2018-12-02T15:19:14.912Z,99400.09
2018-12-02T15:21:23.605Z,99398.78
2018-12-02T15:23:31.724Z,99397.47
2018-12-02T15:25:40.039Z,99406.30
2018-12-02T15:27:48.424Z,99406.77
2018-12-02T15:29:56.496Z,99411.57
2018-12-02T15:32:05.548Z,99415.05
2018-12-02T15:34:14.075Z,99422.02
2018-12-02T15:36:22.364Z,99425.95
2018-12-02T15:38:30.495Z,99427.27
2018-12-02T15:40:38.735Z,99427.66
2018-12-02T15:42:52.564Z,99432.92
2018-12-02T15:45:01.483Z,99437.80
2018-12-02T15:47:09.477Z,99436.87
2018-12-02T15:49:18.743Z,99432.45
2018-12-02T15:51:26.834Z,99438.91
2018-12-02T15:53:31.816Z,99427.91
2018-12-02T15:55:40.109Z,99434.40
2018-12-02T15:57:48.125Z,99426.50
2018-12-02T15:59:56.328Z,99428.75
2018-12-02T16:02:04.651Z,99429.70
2018-12-02T16:04:12.663Z,99432.33
2018-12-02T16:06:21.356Z,99426.12
2018-12-02T16:08:29.359Z,99431.77
2018-12-02T16:10:37.742Z,99429.98
2018-12-02T16:12:47.716Z,99424.24
2018-12-02T16:14:55.845Z,99420.30
2018-12-02T16:17:04.026Z,99428.20
2018-12-02T16:19:12.324Z,99418.98
2018-12-02T16:21:20.330Z,99422.17
2018-12-02T16:24:03.216Z,99426.01
2018-12-02T16:26:11.201Z,99425.66
2018-12-02T16:28:19.378Z,99426.97
2018-12-02T16:30:27.399Z,99427.91
2018-12-02T16:32:35.446Z,99441.20
2018-12-02T16:34:43.493Z,99434.80
2018-12-02T16:36:51.541Z,99437.05
2018-12-02T16:38:59.485Z,99439.80
2018-12-02T16:41:08.056Z,99441.59
2018-12-02T16:43:16.760Z,99451.83
2018-12-02T16:45:24.963Z,99448.35
2018-12-02T16:47:33.059Z,99445.00
2018-12-02T16:49:41.234Z,99448.19
2018-12-02T16:51:49.688Z,99442.16
2018-12-02T16:53:57.870Z,99444.54
2018-12-02T16:56:17.128Z,99451.50
2018-12-02T16:58:59.996Z,99436.64
2018-12-02T17:01:22.668Z,99448.87
2018-12-02T17:03:30.782Z,99439.53
2018-12-02T17:05:39.135Z,99447.08
2018-12-02T17:07:47.751Z,99443.13
2018-12-02T17:09:56.231Z,99440.50
2018-12-02T17:12:04.301Z,99441.44
2018-12-02T17:14:12.909Z,99436.27
2018-12-02T17:16:21.090Z,99425.36
2018-12-02T17:18:29.129Z,99426.20
2018-12-02T17:20:37.170Z,99422.84
2018-12-02T17:22:45.935Z,99422.84
2018-12-02T17:24:54.001Z,99424.16
2018-12-02T17:27:02.035Z,99421.62
2018-12-02T17:29:15.603Z,99415.98
2018-12-02T17:31:34.235Z,99423.96
2018-12-02T17:33:43.152Z,99432.36
2018-12-02T17:35:51.193Z,99435.08
2018-12-02T17:37:59.179Z,99435.17
2018-12-02T17:40:24.338Z,99439.58
2018-12-02T17:42:32.419Z,99440.05
2018-12-02T17:44:40.568Z,99438.36
2018-12-02T17:46:48.624Z,99439.58
2018-12-02T17:48:57.057Z,99430.97
2018-12-02T17:51:05.102Z,99439.75
2018-12-02T17:53:15.072Z,99444.93
2018-12-02T17:55:20.037Z,99447.38
2018-12-02T17:57:28.107Z,99448.58
2018-12-02T17:59:36.190Z,99456.95
2018-12-02T18:01:44.476Z,99455.75
2018-12-02T18:03:53.098Z,99458.84
2018-12-02T18:06:01.245Z,99454.98
2018-12-02T18:08:10.085Z,99460.34
2018-12-02T18:10:18.376Z,99458.17
2018-12-02T18:12:26.575Z,99455.20
2018-12-02T18:16:54.159Z,99450.27
2018-12-02T18:19:03.428Z,99452.45
2018-12-02T18:21:11.517Z,99457.83
2018-12-02T18:23:19.686Z,99450.78
2018-12-02T18:25:28.240Z,99452.09
2018-12-02T18:27:36.239Z,99454.23
2018-12-02T18:29:44.328Z,99456.86
2018-12-02T18:31:52.736Z,99452.45
2018-12-02T18:34:00.732Z,99447.09
2018-12-02T18:36:27.746Z,99450.20
2018-12-02T18:38:38.111Z,99452.73
2018-12-02T18:41:15.688Z,99456.69
2018-12-02T18:43:23.908Z,99457.53
2018-12-02T18:45:32.933Z,99456.69
2018-12-02T18:47:41.961Z,99459.70
2018-12-02T18:49:50.025Z,99457.91
2018-12-02T18:51:58.187Z,99454.69
2018-12-02T18:54:07.393Z,99452.81
2018-12-02T18:56:16.675Z,99462.88
2018-12-02T18:58:25.311Z,99459.77
2018-12-02T19:00:46.876Z,99463.23
2018-12-02T19:02:57.583Z,99454.39
2018-12-02T19:05:05.703Z,99456.55
2018-12-02T19:07:13.879Z,99454.77
2018-12-02T19:09:22.269Z,99457.78
2018-12-02T19:11:30.402Z,99457.22
2018-12-02T19:13:43.622Z,99460.20
2018-12-02T19:15:49.129Z,99456.16
2018-12-02T19:17:57.500Z,99453.82
2018-12-02T19:20:23.680Z,99452.37
2018-12-02T19:22:31.696Z,99454.08
2018-12-02T19:24:39.850Z,99452.29
2018-12-02T19:26:49.836Z,99454.45
2018-12-02T19:28:57.983Z,99448.97
2018-12-02T19:31:06.559Z,99444.17
2018-12-02T19:33:22.237Z,99446.72
2018-12-02T19:35:40.332Z,99449.17
2018-12-02T19:37:50.513Z,99456.22
2018-12-02T19:39:58.587Z,99449.64
2018-12-02T19:42:08.082Z,99446.03
2018-12-02T19:44:16.132Z,99448.20
2018-12-02T19:46:24.657Z,99457.33
2018-12-02T19:48:32.746Z,99454.13
2018-12-02T19:50:41.129Z,99458.08
2018-12-02T19:52:50.025Z,99459.75
2018-12-02T19:54:58.099Z,99458.55
2018-12-02T19:57:07.248Z,99457.70
2018-12-02T19:59:15.438Z,99461.75
2018-12-02T20:01:23.563Z,99461.84
2018-12-02T20:03:32.161Z,99463.75
2018-12-02T20:05:40.498Z,99465.63
2018-12-02T20:07:56.689Z,99461.77
2018-12-02T20:10:05.350Z,99446.94
2018-12-02T20:12:13.391Z,99464.70
2018-12-02T20:14:21.590Z,99467.07
2018-12-02T20:16:29.683Z,99463.68
2018-12-02T20:18:38.344Z,99465.00
2018-12-02T20:20:54.544Z,99457.57
2018-12-02T20:23:03.242Z,99456.84
2018-12-02T20:25:11.399Z,99461.27
2018-12-02T20:27:21.342Z,99459.09
2018-12-02T20:29:29.863Z,99465.30
2018-12-02T20:31:38.054Z,99468.78
2018-12-02T20:33:46.549Z,99461.35
2018-12-02T20:35:54.911Z,99461.27
2018-12-02T20:38:03.519Z,99464.27
2018-12-02T20:40:25.758Z,99466.44
2018-12-02T20:42:33.847Z,99461.89
2018-12-02T20:44:42.010Z,99459.86
2018-12-02T20:46:50.086Z,99452.69
2018-12-02T20:48:58.279Z,99455.22
2018-12-02T20:51:06.311Z,99453.31
2018-12-02T20:53:16.159Z,99454.55
2018-12-02T20:55:28.775Z,99457.09
2018-12-02T20:57:36.939Z,99450.03
2018-12-02T20:59:45.123Z,99451.73
2018-12-02T21:01:53.279Z,99440.23
2018-12-02T21:04:02.028Z,99442.77
2018-12-02T21:06:12.665Z,99446.25
2018-12-02T21:08:22.114Z,99441.36
2018-12-02T21:10:30.182Z,99443.91
2018-12-02T21:12:38.323Z,99436.47
2018-12-02T21:14:46.569Z,99431.08
2018-12-02T21:16:54.666Z,99434.56
2018-12-02T21:19:02.690Z,99424.41
2018-12-02T21:21:10.754Z,99422.16
2018-12-02T21:23:18.747Z,99426.83
2018-12-02T21:25:28.430Z,99424.19
2018-12-02T21:27:36.443Z,99430.63
2018-12-02T21:29:44.475Z,99424.80
2018-12-02T21:31:52.517Z,99425.14
2018-12-02T21:34:00.558Z,99422.89
2018-12-02T21:36:09.073Z,99421.00
2018-12-02T21:38:17.114Z,99423.17
2018-12-02T21:40:25.214Z,99415.27
2018-12-02T21:42:33.607Z,99416.93
2018-12-02T21:44:41.625Z,99414.30
2018-12-02T21:46:49.704Z,99416.93
2018-12-02T21:48:57.689Z,99410.72
2018-12-02T21:51:05.842Z,99406.67
2018-12-02T21:53:13.909Z,99415.42
2018-12-02T21:55:21.982Z,99411.38
2018-12-02T21:57:29.998Z,99416.65
2018-12-02T21:59:38.406Z,99423.58
2018-12-02T22:01:46.485Z,99422.17
2018-12-02T22:03:56.407Z,99423.39
2018-12-02T22:06:04.432Z,99419.44
2018-12-02T22:08:12.469Z,99421.23
2018-12-02T22:10:31.170Z,99419.44
2018-12-02T22:12:39.134Z,99425.56
2018-12-02T22:14:48.061Z,99425.56
2018-12-02T22:16:56.116Z,99422.33
2018-12-02T22:19:04.475Z,99423.08
2018-12-02T22:21:12.444Z,99425.97
2018-12-02T22:23:20.485Z,99419.76
2018-12-02T22:25:29.064Z,99425.78
2018-12-02T22:27:37.449Z,99420.04
2018-12-02T22:29:45.542Z,99420.89
2018-12-02T22:31:53.601Z,99419.57
2018-12-02T22:34:02.445Z,99420.52
2018-12-02T22:36:13.891Z,99418.44
2018-12-02T22:38:20.382Z,99415.55
2018-12-02T22:40:29.149Z,99414.89
2018-12-02T22:42:37.261Z,99421.48
2018-12-02T22:44:45.270Z,99419.82
2018-12-02T22:46:53.332Z,99419.91
2018-12-02T22:49:01.330Z,99417.75
2018-12-02T22:51:11.489Z,99420.85
2018-12-02T22:53:19.465Z,99410.41
2018-12-02T22:55:27.456Z,99409.56
2018-12-02T22:57:36.817Z,99423.23
2018-12-02T22:59:44.847Z,99422.02
2018-12-02T23:02:10.657Z,99422.86
2018-12-02T23:04:18.650Z,99416.27
2018-12-02T23:06:29.074Z,99412.79
2018-12-02T23:08:38.185Z,99419.47
2018-12-02T23:10:46.249Z,99423.89
2018-12-02T23:12:54.522Z,99417.43
2018-12-02T23:15:02.477Z,99411.19
2018-12-02T23:17:36.244Z,99420.06
2018-12-02T23:19:44.181Z,99415.73
2018-12-02T23:21:52.612Z,99417.91
2018-12-02T23:24:00.695Z,99413.48
2018-12-02T23:26:09.163Z,99416.11
2018-12-02T23:28:17.230Z,99410.00
2018-12-02T23:30:26.843Z,99406.52
2018-12-02T23:32:34.816Z,99400.88
2018-12-02T23:34:43.810Z,99405.20
2018-12-02T23:36:51.847Z,99403.88
2018-12-02T23:39:00.303Z,99404.26
2018-12-02T23:41:08.563Z,99401.13
2018-12-02T23:43:16.518Z,99400.66
2018-12-02T23:45:24.498Z,99396.36
2018-12-02T23:47:32.497Z,99390.12
2018-12-02T23:49:40.468Z,99384.37
2018-12-02T23:51:49.270Z,99387.86
2018-12-02T23:53:57.465Z,99390.50
2018-12-02T23:56:07.281Z,99394.82
2018-12-02T23:58:15.227Z,99390.87
